Time;durP1;ratioP1;P1;durP2;ratioP2;P2;SDS_P1;SDS_P2;PMS_P1;PMS_P2;Temp;Humidity;BMP_temperature;BMP_pressure;BME280_temperature;BME280_humidity;BME280_pressure;Samples;Min_cycle;Max_cycle;Signal;HPM_P1;HPM_P2
2022/09/01 00:02:18;;;;;;;3.00;2.70;;;19.80;65.40;;;;;;5078073;28;20460;-44
2022/09/01 00:04:46;;;;;;;2.70;2.50;;;19.80;63.50;;;;;;5073763;28;20460;-44
2022/09/01 00:07:13;;;;;;;2.90;2.70;;;19.70;64.40;;;;;;5079622;28;20503;-45
2022/09/01 00:09:41;;;;;;;3.50;3.20;;;19.70;65.10;;;;;;5082988;28;20752;-45
2022/09/01 00:12:08;;;;;;;4.93;2.63;;;19.80;65.50;;;;;;5085238;28;20461;-44
2022/09/01 00:14:38;;;;;;;2.80;2.20;;;19.70;65.10;;;;;;5058287;28;20484;-44
2022/09/01 00:17:10;;;;;;;4.80;2.50;;;19.70;63.70;;;;;;5082304;28;20464;-44
2022/09/01 00:19:38;;;;;;;4.90;3.00;;;19.80;64.70;;;;;;5083288;28;20467;-44
2022/09/01 00:22:06;;;;;;;2.73;2.53;;;19.80;65.30;;;;;;5081998;28;20821;-44
2022/09/01 00:24:33;;;;;;;2.70;2.50;;;19.70;65.60;;;;;;5062904;28;20453;-44
2022/09/01 00:27:00;;;;;;;2.80;2.60;;;19.60;66.10;;;;;;5083756;28;20720;-44
2022/09/01 00:29:27;;;;;;;3.03;2.83;;;19.70;65.40;;;;;;5077982;28;20453;-44
2022/09/01 00:31:54;;;;;;;2.60;2.23;;;19.60;64.50;;;;;;5046651;28;20459;-45
2022/09/01 00:34:21;;;;;;;2.37;2.27;;;19.50;65.00;;;;;;5080253;28;20470;-44
2022/09/01 00:36:48;;;;;;;3.47;2.40;;;19.40;66.50;;;;;;5069237;28;20568;-44
2022/09/01 00:39:15;;;;;;;2.60;2.40;;;19.40;65.30;;;;;;5081608;28;20476;-44
2022/09/01 00:41:43;;;;;;;3.27;2.23;;;19.40;65.60;;;;;;5081354;28;20467;-44
2022/09/01 00:44:14;;;;;;;2.10;2.00;;;19.50;66.50;;;;;;5080765;28;20463;-44
2022/09/01 00:46:45;;;;;;;2.37;2.00;;;19.50;66.10;;;;;;5080082;28;20465;-44
2022/09/01 00:49:38;;;;;;;2.37;2.20;;;19.50;65.80;;;;;;5081721;28;20745;-44
2022/09/01 00:52:42;;;;;;;2.60;2.30;;;19.50;66.10;;;;;;5086160;28;20543;-44
2022/09/01 00:55:24;;;;;;;2.90;2.33;;;19.50;66.10;;;;;;4986705;28;20529;-44
2022/09/01 00:57:51;;;;;;;4.10;2.77;;;19.30;66.70;;;;;;5077715;28;20472;-44
2022/09/01 01:00:22;;;;;;;2.77;2.43;;;19.30;66.20;;;;;;5085454;28;20452;-44
2022/09/01 01:02:54;;;;;;;2.50;2.30;;;19.20;67.00;;;;;;5086600;28;20464;-44
2022/09/01 01:05:31;;;;;;;3.40;2.27;;;19.20;66.20;;;;;;5070057;28;20472;-44
2022/09/01 01:08:00;;;;;;;2.80;2.17;;;19.20;66.80;;;;;;5084770;28;20474;-44
2022/09/01 01:10:32;;;;;;;2.87;2.60;;;19.10;67.20;;;;;;5082539;28;20460;-44
2022/09/01 01:13:03;;;;;;;2.50;2.40;;;19.00;67.00;;;;;;5063105;28;20456;-44
2022/09/01 01:15:30;;;;;;;2.60;2.40;;;19.00;67.50;;;;;;5081325;28;20488;-44
2022/09/01 01:17:57;;;;;;;3.43;2.70;;;18.90;67.70;;;;;;5086491;28;20456;-45
2022/09/01 01:23:29;;;;;;;2.77;2.50;;;18.80;67.50;;;;;;5085365;28;20984;-44
2022/09/01 01:25:58;;;;;;;3.07;2.60;;;18.80;68.10;;;;;;5086552;28;20465;-45
2022/09/01 01:28:30;;;;;;;3.40;2.30;;;18.80;68.20;;;;;;5085107;28;20460;-44
2022/09/01 01:31:00;;;;;;;4.50;2.60;;;18.70;68.60;;;;;;5086477;28;20453;-45
2022/09/01 01:33:32;;;;;;;4.87;2.77;;;18.80;68.10;;;;;;5088705;28;20579;-44
2022/09/01 01:36:00;;;;;;;2.53;2.33;;;18.70;68.20;;;;;;5081719;28;20985;-44
2022/09/01 01:38:29;;;;;;;2.70;2.50;;;18.70;68.60;;;;;;5084058;28;20660;-44
2022/09/01 01:40:55;;;;;;;2.70;2.27;;;18.70;68.40;;;;;;5084477;28;20484;-44
2022/09/01 01:43:23;;;;;;;2.23;2.13;;;18.60;68.30;;;;;;5085670;28;20464;-44
2022/09/01 01:45:53;;;;;;;2.67;2.20;;;18.60;68.50;;;;;;5070798;28;20483;-44
2022/09/01 01:48:23;;;;;;;2.57;2.33;;;18.60;69.10;;;;;;5083443;28;20464;-45
2022/09/01 01:50:52;;;;;;;2.63;2.23;;;18.60;69.20;;;;;;5083496;28;20961;-45
2022/09/01 01:53:18;;;;;;;2.57;2.37;;;18.60;68.70;;;;;;5083462;28;20978;-45
2022/09/01 01:55:48;;;;;;;2.63;2.43;;;18.60;68.30;;;;;;5085369;28;20488;-45
2022/09/01 01:58:18;;;;;;;1.93;1.73;;;18.60;69.00;;;;;;5063277;28;20485;-45
2022/09/01 02:00:49;;;;;;;2.60;2.40;;;18.70;68.00;;;;;;5067788;28;20453;-44
2022/09/01 02:03:20;;;;;;;2.53;2.40;;;18.60;68.00;;;;;;5081777;28;20461;-44
2022/09/01 02:05:49;;;;;;;5.43;2.30;;;18.60;68.30;;;;;;5084571;28;20461;-44
2022/09/01 02:08:21;;;;;;;3.37;2.20;;;18.60;68.50;;;;;;5061670;28;20919;-44
2022/09/01 02:10:50;;;;;;;2.67;2.20;;;18.60;68.20;;;;;;5083796;28;20473;-44
2022/09/01 02:13:21;;;;;;;3.03;2.73;;;18.60;68.30;;;;;;5083129;28;20459;-44
2022/09/01 02:15:52;;;;;;;2.60;2.40;;;18.60;68.70;;;;;;5062485;28;20484;-44
2022/09/01 02:18:30;;;;;;;3.00;2.80;;;18.40;68.80;;;;;;5067703;28;20464;-44
2022/09/01 02:21:00;;;;;;;2.60;2.40;;;18.40;69.50;;;;;;5069492;28;20461;-44
2022/09/01 02:23:27;;;;;;;4.77;2.33;;;18.40;69.00;;;;;;5085208;28;20509;-44
2022/09/01 02:26:01;;;;;;;2.77;2.57;;;18.40;69.30;;;;;;5085860;28;20461;-45
2022/09/01 02:28:48;;;;;;;3.43;2.47;;;18.20;70.80;;;;;;5082859;28;20998;-44
2022/09/01 02:31:21;;;;;;;2.70;2.30;;;18.40;70.30;;;;;;5084527;28;20521;-44
2022/09/01 02:33:49;;;;;;;4.77;3.10;;;18.30;69.10;;;;;;5080491;28;21446;-45
2022/09/01 02:36:18;;;;;;;3.90;3.50;;;18.20;70.10;;;;;;5080655;28;20488;-45
2022/09/01 02:38:47;;;;;;;3.10;2.80;;;18.20;70.60;;;;;;5085624;28;20471;-45
2022/09/01 02:41:22;;;;;;;2.70;2.50;;;18.20;70.20;;;;;;5082788;28;20960;-45
2022/09/01 02:43:49;;;;;;;3.50;2.53;;;18.20;69.90;;;;;;5080200;28;20449;-45
2022/09/01 02:46:17;;;;;;;3.33;3.03;;;18.20;70.10;;;;;;5084624;28;20471;-45
2022/09/01 02:48:44;;;;;;;3.60;2.80;;;18.20;70.30;;;;;;5081812;28;20464;-45
2022/09/01 02:51:15;;;;;;;3.10;2.80;;;18.30;69.90;;;;;;5067396;28;20465;-45
2022/09/01 02:53:45;;;;;;;2.73;2.53;;;18.20;69.80;;;;;;5084272;28;20464;-45
2022/09/01 02:56:13;;;;;;;3.53;2.90;;;18.30;70.10;;;;;;5066989;28;20856;-45
2022/09/01 02:58:45;;;;;;;4.10;2.70;;;18.20;70.20;;;;;;5082177;28;20533;-45
2022/09/01 03:01:18;;;;;;;3.00;2.80;;;18.20;70.10;;;;;;5067233;28;20468;-45
2022/09/01 03:03:45;;;;;;;2.80;2.60;;;18.20;70.40;;;;;;5083228;28;20460;-45
2022/09/01 03:06:13;;;;;;;3.10;2.80;;;18.20;70.40;;;;;;5068282;28;20471;-45
2022/09/01 03:08:40;;;;;;;3.17;2.97;;;18.30;70.50;;;;;;5082736;28;20805;-45
2022/09/01 03:11:09;;;;;;;3.23;2.97;;;18.30;70.40;;;;;;5066100;28;20469;-45
2022/09/01 03:13:40;;;;;;;3.93;2.77;;;18.10;71.30;;;;;;5081474;28;20464;-45
2022/09/01 03:16:08;;;;;;;4.80;3.37;;;18.00;71.80;;;;;;5081305;28;20491;-45
2022/09/01 03:18:35;;;;;;;2.80;2.60;;;17.90;72.60;;;;;;5079500;28;20551;-45
2022/09/01 03:21:04;;;;;;;2.83;2.47;;;17.90;72.50;;;;;;5081240;28;20825;-45
2022/09/01 03:23:32;;;;;;;3.10;2.80;;;17.90;71.80;;;;;;5079952;28;20464;-45
2022/09/01 03:26:00;;;;;;;3.37;3.07;;;17.90;72.00;;;;;;5080831;28;20457;-45
2022/09/01 03:28:27;;;;;;;7.00;3.20;;;17.90;71.60;;;;;;5083384;28;20475;-45
2022/09/01 03:30:56;;;;;;;3.83;3.50;;;17.90;71.70;;;;;;5080090;28;20460;-45
2022/09/01 03:33:24;;;;;;;3.17;2.80;;;17.90;71.90;;;;;;5076048;28;20461;-45
2022/09/01 03:35:51;;;;;;;3.00;2.73;;;17.90;71.90;;;;;;5062848;28;20504;-45
2022/09/01 03:38:23;;;;;;;3.43;2.70;;;17.80;72.40;;;;;;5065587;28;20465;-45
2022/09/01 03:40:59;;;;;;;3.27;2.97;;;17.70;72.00;;;;;;5078654;28;20508;-45
2022/09/01 03:43:28;;;;;;;2.93;2.60;;;17.70;72.80;;;;;;5065789;28;20464;-45
2022/09/01 03:46:01;;;;;;;3.57;3.27;;;17.60;72.70;;;;;;5083747;28;20541;-44
2022/09/01 03:48:30;;;;;;;5.03;2.87;;;17.50;73.40;;;;;;5068269;28;21169;-44
2022/09/01 03:51:01;;;;;;;4.30;4.00;;;17.40;73.80;;;;;;5082656;28;20467;-44
2022/09/01 03:53:33;;;;;;;3.37;3.10;;;17.40;74.10;;;;;;5082670;28;20529;-44
2022/09/01 03:56:00;;;;;;;3.70;2.70;;;17.30;74.40;;;;;;5080177;28;20557;-45
2022/09/01 03:58:27;;;;;;;3.40;3.03;;;17.30;74.30;;;;;;5082852;28;20692;-44
2022/09/01 04:00:57;;;;;;;4.00;3.70;;;17.30;73.80;;;;;;5081731;28;21282;-44
2022/09/01 04:03:26;;;;;;;2.83;2.53;;;17.30;74.30;;;;;;5082907;28;20475;-44
2022/09/01 04:05:58;;;;;;;3.30;3.00;;;17.30;74.20;;;;;;5082314;28;20457;-44
2022/09/01 04:08:30;;;;;;;3.33;2.60;;;17.30;74.60;;;;;;5082556;28;20480;-44
2022/09/01 04:11:02;;;;;;;6.13;3.00;;;17.30;74.50;;;;;;5066287;28;20459;-44
2022/09/01 04:13:39;;;;;;;3.70;3.40;;;17.30;74.50;;;;;;5082616;28;20460;-44
2022/09/01 04:18:03;;;;;;;5.67;3.63;;;17.30;74.30;;;;;;5062989;28;20487;-45
2022/09/01 04:19:14;;;;;;;3.40;3.10;;;17.30;74.20;;;;;;5081434;28;20856;-44
2022/09/01 04:21:42;;;;;;;6.03;3.83;;;17.30;74.40;;;;;;5081563;28;20507;-45
2022/09/01 04:24:12;;;;;;;3.13;2.90;;;17.20;74.80;;;;;;5081210;28;20465;-44
2022/09/01 04:26:39;;;;;;;3.47;3.17;;;17.20;74.50;;;;;;5072022;28;20452;-44
2022/09/01 04:29:07;;;;;;;4.10;3.37;;;17.00;74.60;;;;;;5089021;28;21350;-45
2022/09/01 04:31:36;;;;;;;3.93;3.53;;;17.00;75.50;;;;;;5089947;28;20814;-44
2022/09/01 04:34:09;;;;;;;4.17;3.33;;;17.00;75.10;;;;;;5082307;28;20484;-44
2022/09/01 04:36:39;;;;;;;4.37;3.40;;;17.00;75.10;;;;;;5083416;28;20464;-44
2022/09/01 04:39:08;;;;;;;5.00;3.40;;;17.00;75.70;;;;;;5082425;28;20453;-44
2022/09/01 04:41:40;;;;;;;3.60;3.30;;;17.00;75.30;;;;;;5063827;28;20456;-44
2022/09/01 04:44:08;;;;;;;4.10;2.70;;;17.00;75.30;;;;;;5078314;28;21104;-44
2022/09/01 04:46:46;;;;;;;4.07;3.53;;;17.00;75.50;;;;;;5076519;28;20457;-44
2022/09/01 04:49:18;;;;;;;4.13;3.10;;;17.00;75.70;;;;;;5077898;28;22033;-44
2022/09/01 04:51:48;;;;;;;4.00;3.70;;;17.10;75.70;;;;;;5080150;28;20467;-44
2022/09/01 04:54:21;;;;;;;2.80;2.60;;;17.00;75.50;;;;;;5082957;28;20598;-44
2022/09/01 04:56:49;;;;;;;3.27;3.00;;;17.00;76.10;;;;;;5068517;28;20492;-44
2022/09/01 04:59:19;;;;;;;3.67;3.37;;;17.10;76.10;;;;;;5086421;28;20460;-44
2022/09/01 05:01:49;;;;;;;3.70;3.40;;;17.10;76.10;;;;;;5084125;28;20451;-44
2022/09/01 05:04:20;;;;;;;3.47;3.17;;;17.10;76.20;;;;;;5085136;28;20456;-44
2022/09/01 05:06:49;;;;;;;4.67;4.17;;;17.10;75.90;;;;;;5066097;28;20461;-44
2022/09/01 05:09:18;;;;;;;3.17;2.93;;;17.10;76.00;;;;;;5065296;28;20471;-44
2022/09/01 05:11:45;;;;;;;5.37;3.13;;;17.10;76.10;;;;;;5086507;28;20467;-44
2022/09/01 05:14:12;;;;;;;3.50;3.20;;;17.10;76.30;;;;;;5083331;28;20460;-44
2022/09/01 05:16:41;;;;;;;3.87;2.93;;;17.10;76.30;;;;;;5063460;28;20484;-45
2022/09/01 05:19:13;;;;;;;4.30;3.90;;;16.90;76.90;;;;;;5079305;28;20468;-44
2022/09/01 05:21:45;;;;;;;3.53;3.33;;;16.90;77.80;;;;;;5077657;28;20539;-44
2022/09/01 05:24:20;;;;;;;3.87;3.13;;;16.90;77.50;;;;;;5088188;28;20453;-45
2022/09/01 05:26:52;;;;;;;4.40;3.67;;;17.00;77.70;;;;;;5072076;28;20473;-44
2022/09/01 05:29:19;;;;;;;3.50;3.20;;;17.10;77.00;;;;;;5068219;28;20464;-44
2022/09/01 05:31:47;;;;;;;4.13;3.80;;;17.10;76.40;;;;;;5081733;28;20460;-44
2022/09/01 05:34:21;;;;;;;4.43;3.60;;;17.10;76.80;;;;;;5084546;28;20469;-44
2022/09/01 05:36:49;;;;;;;4.13;3.30;;;17.10;76.70;;;;;;5085251;28;20495;-44
2022/09/01 05:39:16;;;;;;;4.17;3.30;;;17.10;76.70;;;;;;5084187;28;20457;-44
2022/09/01 05:41:44;;;;;;;3.20;3.00;;;17.20;77.30;;;;;;5053061;28;20510;-44
2022/09/01 05:44:12;;;;;;;5.33;3.10;;;17.10;76.70;;;;;;5086779;28;20531;-45
2022/09/01 05:46:41;;;;;;;4.53;3.00;;;17.10;76.10;;;;;;5065917;28;20457;-44
2022/09/01 05:49:12;;;;;;;4.37;3.60;;;17.30;75.60;;;;;;5085045;28;20567;-44
2022/09/01 05:51:48;;;;;;;6.17;3.53;;;17.30;75.40;;;;;;5081220;28;21002;-44
2022/09/01 05:54:21;;;;;;;3.17;2.90;;;17.40;75.60;;;;;;5085524;28;20464;-44
2022/09/01 05:56:49;;;;;;;5.90;2.90;;;17.40;74.20;;;;;;5065097;28;20494;-44
2022/09/01 05:59:16;;;;;;;5.10;3.33;;;17.50;75.00;;;;;;5076716;28;20456;-44
2022/09/01 06:01:53;;;;;;;4.13;3.73;;;17.60;74.70;;;;;;5083553;28;20547;-44
2022/09/01 06:04:21;;;;;;;5.73;3.10;;;17.60;74.20;;;;;;5077264;28;20539;-44
2022/09/01 06:06:49;;;;;;;2.90;2.70;;;17.60;74.60;;;;;;5085276;28;20469;-45
2022/09/01 06:09:38;;;;;;;3.63;3.30;;;17.70;74.50;;;;;;5084613;28;20461;-45
2022/09/01 06:12:07;;;;;;;6.87;3.23;;;17.70;73.00;;;;;;5084416;28;20483;-45
2022/09/01 06:14:33;;;;;;;4.63;3.33;;;17.70;72.80;;;;;;5085470;28;20916;-45
2022/09/01 06:17:01;;;;;;;6.53;3.27;;;17.80;72.10;;;;;;5080209;28;20528;-45
2022/09/01 06:19:28;;;;;;;3.77;2.67;;;17.90;72.70;;;;;;5086436;28;20472;-45
2022/09/01 06:22:01;;;;;;;3.23;2.93;;;17.90;72.80;;;;;;5066576;28;20473;-45
2022/09/01 06:24:28;;;;;;;4.10;3.20;;;17.80;71.30;;;;;;5067635;28;20961;-44
2022/09/01 06:26:55;;;;;;;2.77;2.50;;;17.70;71.30;;;;;;5082793;28;20480;-44
2022/09/01 06:29:22;;;;;;;4.37;2.53;;;17.80;71.50;;;;;;5088916;28;20525;-45
2022/09/01 06:31:51;;;;;;;3.00;2.73;;;17.90;70.50;;;;;;5073198;28;20461;-44
2022/09/01 06:34:21;;;;;;;3.13;2.57;;;18.00;70.50;;;;;;5074409;28;20532;-44
2022/09/01 06:36:50;;;;;;;2.70;2.50;;;18.20;70.00;;;;;;5092989;28;20485;-44
2022/09/01 06:39:20;;;;;;;3.70;2.80;;;18.20;69.70;;;;;;5084054;28;20469;-45
2022/09/01 06:41:51;;;;;;;3.50;3.10;;;18.30;70.00;;;;;;5051773;28;20436;-45
2022/09/01 06:44:21;;;;;;;3.37;3.17;;;18.40;69.60;;;;;;5080131;28;20926;-44
2022/09/01 06:46:52;;;;;;;3.00;2.80;;;18.40;69.30;;;;;;5085524;28;20492;-44
2022/09/01 06:49:28;;;;;;;2.87;2.60;;;18.50;68.70;;;;;;5079988;28;20471;-44
2022/09/01 06:51:55;;;;;;;3.03;2.50;;;18.50;68.20;;;;;;5069660;28;20529;-44
2022/09/01 06:54:23;;;;;;;2.63;2.43;;;18.60;67.90;;;;;;5084280;28;20965;-44
2022/09/01 06:56:52;;;;;;;3.23;2.93;;;18.60;67.80;;;;;;5069314;28;20495;-44
2022/09/01 06:59:20;;;;;;;2.80;2.60;;;18.70;68.10;;;;;;5070617;28;20464;-44
2022/09/01 07:01:53;;;;;;;3.47;2.67;;;18.70;67.90;;;;;;5071922;28;20464;-44
2022/09/01 07:04:30;;;;;;;3.60;2.90;;;18.80;67.60;;;;;;5085552;28;20555;-44
2022/09/01 07:06:59;;;;;;;4.30;2.80;;;18.90;67.50;;;;;;5082807;28;20464;-43
2022/09/01 07:09:46;;;;;;;4.83;2.77;;;18.90;67.00;;;;;;5088140;28;20531;-43
2022/09/01 07:12:34;;;;;;;3.07;2.60;;;18.90;67.20;;;;;;5084833;28;20549;-44
2022/09/01 07:15:01;;;;;;;4.27;2.87;;;19.00;67.30;;;;;;5086545;28;20457;-43
2022/09/01 07:17:51;;;;;;;2.60;2.40;;;19.00;66.90;;;;;;5072682;28;20477;-44
2022/09/01 07:20:20;;;;;;;3.67;2.63;;;19.00;66.60;;;;;;5086229;28;21023;-45
2022/09/01 07:23:07;;;;;;;6.07;3.10;;;19.10;66.20;;;;;;5082426;28;20870;-45
2022/09/01 07:25:37;;;;;;;10.20;2.87;;;19.00;66.40;;;;;;5085811;28;20471;-45
2022/09/01 07:28:28;;;;;;;8.00;2.80;;;19.10;66.30;;;;;;5068710;28;20448;-45
2022/09/01 07:31:04;;;;;;;3.47;2.80;;;19.10;66.60;;;;;;5081417;28;20506;-45
2022/09/01 07:33:53;;;;;;;3.73;3.43;;;19.00;67.00;;;;;;5068143;28;20492;-45
2022/09/01 07:36:41;;;;;;;2.97;2.67;;;18.90;67.10;;;;;;5054844;28;20522;-45
2022/09/01 07:39:30;;;;;;;2.73;2.53;;;19.10;66.70;;;;;;5067883;28;20658;-45
2022/09/01 07:42:18;;;;;;;3.17;2.87;;;19.10;66.30;;;;;;5085706;28;20460;-45
2022/09/01 07:45:07;;;;;;;3.53;2.60;;;19.20;66.30;;;;;;5074336;28;20460;-45
2022/09/01 07:47:55;;;;;;;3.30;2.60;;;19.20;66.10;;;;;;5080284;28;20461;-45
2022/09/01 07:50:27;;;;;;;3.13;2.93;;;19.00;66.50;;;;;;5078961;28;20472;-45
2022/09/01 07:53:35;;;;;;;3.00;2.80;;;19.00;66.70;;;;;;5070403;28;20460;-45
2022/09/01 07:56:10;;;;;;;4.17;2.70;;;19.00;67.00;;;;;;5083555;28;20475;-45
2022/09/01 07:58:39;;;;;;;3.07;2.87;;;19.00;67.00;;;;;;5079604;28;20488;-45
2022/09/01 08:01:12;;;;;;;5.20;2.23;;;19.20;66.60;;;;;;5064506;28;20681;-45
2022/09/01 08:03:40;;;;;;;2.70;2.43;;;19.30;66.30;;;;;;5080622;28;20475;-45
2022/09/01 08:06:10;;;;;;;3.20;2.30;;;19.40;66.70;;;;;;5082805;28;20472;-45
2022/09/01 08:08:38;;;;;;;3.90;2.63;;;19.50;66.40;;;;;;5083154;28;20469;-45
2022/09/01 08:11:06;;;;;;;3.20;2.80;;;19.60;66.30;;;;;;5075708;28;20467;-44
2022/09/01 08:13:39;;;;;;;2.97;2.60;;;19.60;65.70;;;;;;5083695;28;20477;-44
2022/09/01 08:16:08;;;;;;;2.47;2.27;;;19.40;66.30;;;;;;5082052;28;20456;-44
2022/09/01 08:18:46;;;;;;;3.10;2.90;;;19.40;66.10;;;;;;5085316;28;20555;-44
2022/09/01 08:21:16;;;;;;;3.33;2.60;;;19.40;66.10;;;;;;5062536;28;20985;-44
2022/09/01 08:23:43;;;;;;;4.73;3.17;;;19.30;66.30;;;;;;5077141;28;20457;-45
2022/09/01 08:26:13;;;;;;;3.40;3.17;;;19.30;66.50;;;;;;5082177;28;20531;-45
2022/09/01 08:28:40;;;;;;;4.50;3.07;;;19.30;66.60;;;;;;5081951;28;20473;-45
2022/09/01 08:31:16;;;;;;;4.43;3.00;;;19.30;66.40;;;;;;5079385;28;20500;-45
2022/09/01 08:33:46;;;;;;;3.40;3.10;;;19.50;66.60;;;;;;5083762;28;20468;-44
2022/09/01 08:36:14;;;;;;;3.60;3.20;;;19.50;66.00;;;;;;5081826;28;20935;-45
2022/09/01 08:38:48;;;;;;;2.90;2.40;;;19.60;66.10;;;;;;5082630;28;20484;-44
2022/09/01 08:41:30;;;;;;;4.30;2.83;;;19.70;65.50;;;;;;5084864;28;20469;-44
2022/09/01 08:44:26;;;;;;;2.90;2.70;;;19.80;65.30;;;;;;5065499;28;20954;-45
2022/09/01 08:47:04;;;;;;;4.10;2.77;;;19.90;65.60;;;;;;5077321;28;20472;-44
2022/09/01 08:49:35;;;;;;;5.10;2.87;;;19.90;64.90;;;;;;5079436;28;20460;-44
2022/09/01 08:52:15;;;;;;;4.80;4.00;;;20.00;65.10;;;;;;5082623;28;20471;-44
2022/09/01 08:54:49;;;;;;;3.03;2.70;;;20.10;65.50;;;;;;5082497;28;20555;-44
2022/09/01 08:57:17;;;;;;;3.20;2.90;;;20.20;65.60;;;;;;5081742;28;20495;-44
2022/09/01 08:59:44;;;;;;;3.20;2.67;;;20.30;64.10;;;;;;5082116;28;20491;-44
2022/09/01 09:02:34;;;;;;;3.83;2.70;;;20.30;64.20;;;;;;5082228;28;20923;-44
2022/09/01 09:05:30;;;;;;;8.23;3.60;;;20.40;64.30;;;;;;5082946;28;20462;-44
2022/09/01 09:08:08;;;;;;;3.30;3.10;;;20.20;63.70;;;;;;5066576;28;20467;-45
2022/09/01 09:10:58;;;;;;;3.17;2.80;;;20.10;64.20;;;;;;5085635;28;20831;-45
2022/09/01 09:14:03;;;;;;;4.53;2.93;;;20.00;64.90;;;;;;5066616;28;20461;-45
2022/09/01 09:16:47;;;;;;;4.50;3.10;;;20.10;64.20;;;;;;5031101;28;20801;-44
2022/09/01 09:19:30;;;;;;;11.23;3.43;;;20.10;63.50;;;;;;5068544;28;20461;-45
2022/09/01 09:22:00;;;;;;;3.00;2.70;;;20.20;63.50;;;;;;5086499;28;20452;-44
2022/09/01 09:24:46;;;;;;;3.40;2.80;;;20.40;63.30;;;;;;5081606;28;21459;-44
2022/09/01 09:27:31;;;;;;;3.00;2.80;;;20.60;63.00;;;;;;5084399;28;20460;-45
2022/09/01 09:30:04;;;;;;;4.07;3.50;;;20.70;62.90;;;;;;5085330;28;20829;-45
2022/09/01 09:32:48;;;;;;;4.87;2.70;;;20.70;62.20;;;;;;5063493;28;20449;-45
2022/09/01 09:35:37;;;;;;;3.53;3.20;;;20.80;62.50;;;;;;5070765;28;20449;-45
2022/09/01 09:38:18;;;;;;;3.70;3.30;;;20.80;62.20;;;;;;5084064;28;20511;-45
2022/09/01 09:41:13;;;;;;;3.83;3.27;;;21.00;62.10;;;;;;5067131;28;20518;-45
2022/09/01 09:44:02;;;;;;;6.87;2.73;;;21.20;62.00;;;;;;5086657;28;20445;-44
2022/09/01 09:46:35;;;;;;;3.80;3.30;;;21.20;60.90;;;;;;5084847;28;20909;-44
2022/09/01 09:49:14;;;;;;;3.40;3.10;;;21.20;61.00;;;;;;5079912;28;20458;-44
2022/09/01 09:51:47;;;;;;;5.23;3.23;;;21.20;60.80;;;;;;5055942;28;20472;-44
2022/09/01 09:54:20;;;;;;;3.00;2.80;;;21.40;61.50;;;;;;5059262;28;20531;-44
2022/09/01 09:56:51;;;;;;;4.10;3.70;;;21.50;60.10;;;;;;5085023;28;20471;-44
2022/09/01 09:59:29;;;;;;;5.23;3.00;;;21.50;59.70;;;;;;5060621;28;20447;-44
2022/09/01 10:02:43;;;;;;;4.60;3.07;;;21.40;60.40;;;;;;5086131;28;20425;-45
2022/09/01 10:05:22;;;;;;;5.90;3.00;;;21.40;60.00;;;;;;5082753;28;20446;-45
2022/09/01 10:07:49;;;;;;;4.20;3.10;;;21.60;60.10;;;;;;5082571;28;20468;-45
2022/09/01 10:10:31;;;;;;;3.90;3.50;;;21.80;59.60;;;;;;5082724;28;20953;-45
2022/09/01 10:12:58;;;;;;;3.30;3.00;;;21.90;58.60;;;;;;5076970;28;20479;-45
2022/09/01 10:15:31;;;;;;;6.57;2.90;;;22.10;58.80;;;;;;5051486;28;20871;-45
2022/09/01 10:18:07;;;;;;;3.93;3.03;;;22.30;58.30;;;;;;5078936;28;20480;-45
2022/09/01 10:21:00;;;;;;;3.13;2.83;;;22.40;58.20;;;;;;5082831;28;20456;-45
2022/09/01 10:23:29;;;;;;;2.73;2.50;;;22.40;57.30;;;;;;5085137;28;20817;-45
2022/09/01 10:26:10;;;;;;;2.80;2.60;;;22.40;57.30;;;;;;5071842;28;20452;-45
2022/09/01 10:28:59;;;;;;;2.63;2.40;;;22.60;56.80;;;;;;5085821;28;20894;-45
2022/09/01 10:31:28;;;;;;;4.20;3.03;;;22.80;56.10;;;;;;5064512;28;20456;-45
2022/09/01 10:34:00;;;;;;;3.10;2.77;;;23.30;55.90;;;;;;5081079;28;20448;-45
2022/09/01 10:36:29;;;;;;;2.50;2.30;;;23.80;53.90;;;;;;5085525;28;20456;-45
2022/09/01 10:38:56;;;;;;;4.80;2.90;;;24.40;53.50;;;;;;5066418;28;21008;-45
2022/09/01 10:41:55;;;;;;;2.73;2.43;;;25.40;50.90;;;;;;5080192;28;20462;-45
2022/09/01 10:44:32;;;;;;;2.97;2.77;;;26.40;47.60;;;;;;5080886;28;20528;-45
2022/09/01 10:47:09;;;;;;;3.33;3.03;;;26.50;47.30;;;;;;5068944;28;20953;-45
2022/09/01 10:49:42;;;;;;;2.90;2.70;;;26.00;48.10;;;;;;5073143;28;20672;-45
2022/09/01 10:52:41;;;;;;;3.13;2.70;;;25.50;49.70;;;;;;5061778;28;20478;-45
2022/09/01 10:55:18;;;;;;;2.77;2.57;;;25.00;50.10;;;;;;5079759;28;20483;-45
2022/09/01 10:58:13;;;;;;;3.20;2.90;;;24.60;51.60;;;;;;5059508;28;20487;-45
2022/09/01 11:01:01;;;;;;;4.17;2.77;;;24.40;52.40;;;;;;5082433;28;20851;-45
2022/09/01 11:03:53;;;;;;;4.90;2.97;;;24.20;51.70;;;;;;5079748;28;20953;-45
2022/09/01 11:06:41;;;;;;;3.80;3.43;;;24.20;51.50;;;;;;5081819;28;20532;-45
2022/09/01 11:09:34;;;;;;;3.07;2.87;;;24.20;51.70;;;;;;5082744;28;20503;-45
2022/09/01 11:12:20;;;;;;;3.23;3.03;;;24.10;51.70;;;;;;5083756;28;20535;-45
2022/09/01 11:15:04;;;;;;;2.60;2.40;;;24.10;51.80;;;;;;5059975;28;20555;-45
2022/09/01 11:17:36;;;;;;;3.17;2.87;;;24.00;51.70;;;;;;5065196;28;20578;-45
2022/09/01 11:20:09;;;;;;;3.70;2.90;;;23.90;52.30;;;;;;5049446;28;20456;-45
2022/09/01 11:22:58;;;;;;;2.93;2.40;;;23.90;52.40;;;;;;5082634;28;20456;-45
2022/09/01 11:25:32;;;;;;;3.70;3.40;;;23.80;52.10;;;;;;5057231;28;20453;-45
2022/09/01 11:28:30;;;;;;;3.33;2.80;;;23.70;52.40;;;;;;5082369;28;20878;-45
2022/09/01 11:31:10;;;;;;;4.10;3.20;;;23.60;52.10;;;;;;5080190;28;20894;-45
2022/09/01 11:33:51;;;;;;;2.83;2.37;;;23.60;52.40;;;;;;5076858;28;21004;-45
2022/09/01 11:36:30;;;;;;;2.87;2.47;;;23.60;52.20;;;;;;5074681;28;20471;-45
2022/09/01 11:39:01;;;;;;;3.20;2.93;;;23.40;51.90;;;;;;5063239;28;20491;-45
2022/09/01 11:41:43;;;;;;;3.27;3.07;;;23.50;52.30;;;;;;5064047;28;20907;-45
2022/09/01 11:44:17;;;;;;;3.37;3.17;;;23.50;52.90;;;;;;5083132;28;20444;-45
2022/09/01 11:46:45;;;;;;;3.20;2.90;;;23.50;52.40;;;;;;5081311;28;20464;-45
2022/09/01 11:49:29;;;;;;;3.20;3.00;;;23.40;52.10;;;;;;5063480;28;20454;-45
2022/09/01 11:51:59;;;;;;;3.13;2.77;;;23.50;52.40;;;;;;5082541;28;20463;-45
2022/09/01 11:54:27;;;;;;;4.33;3.10;;;23.50;52.50;;;;;;5077149;28;20467;-45
2022/09/01 11:56:54;;;;;;;2.80;2.60;;;23.50;53.30;;;;;;5077959;28;20483;-45
2022/09/01 11:59:32;;;;;;;3.30;3.00;;;23.60;52.90;;;;;;5048732;28;20531;-45
2022/09/01 12:02:00;;;;;;;3.70;3.37;;;23.60;52.50;;;;;;5080536;28;20991;-45
2022/09/01 12:04:36;;;;;;;5.30;2.90;;;23.70;52.60;;;;;;5083028;28;20451;-45
2022/09/01 12:07:06;;;;;;;3.43;3.13;;;23.70;52.30;;;;;;5068751;28;20471;-45
2022/09/01 12:09:42;;;;;;;3.60;3.40;;;23.60;52.40;;;;;;5065066;28;20468;-45
2022/09/01 12:12:30;;;;;;;3.13;2.93;;;23.50;52.40;;;;;;5063124;28;20469;-45
2022/09/01 12:15:03;;;;;;;3.37;3.17;;;23.50;52.00;;;;;;5083259;28;20945;-45
2022/09/01 12:17:34;;;;;;;3.90;3.50;;;23.40;52.20;;;;;;5081630;28;21040;-45
2022/09/01 12:20:20;;;;;;;3.37;3.00;;;23.50;52.50;;;;;;5081310;28;20474;-45
2022/09/01 12:22:52;;;;;;;4.23;3.27;;;23.50;52.40;;;;;;5061681;28;20543;-45
2022/09/01 12:25:32;;;;;;;4.03;3.20;;;23.60;52.20;;;;;;5063373;28;21056;-45
2022/09/01 12:28:05;;;;;;;3.63;3.27;;;23.70;52.50;;;;;;5077871;28;20459;-45
2022/09/01 12:30:38;;;;;;;3.40;3.10;;;23.70;51.90;;;;;;5080300;28;20456;-45
2022/09/01 12:33:08;;;;;;;3.37;3.17;;;23.70;52.00;;;;;;5081251;28;20462;-45
2022/09/01 12:35:51;;;;;;;4.37;3.60;;;23.70;52.20;;;;;;5079848;28;20487;-45
2022/09/01 12:38:27;;;;;;;3.40;2.97;;;23.70;52.10;;;;;;5062751;28;20594;-45
2022/09/01 12:40:56;;;;;;;6.23;3.30;;;23.70;52.40;;;;;;5079307;28;20464;-45
2022/09/01 12:43:38;;;;;;;4.33;3.20;;;23.60;51.60;;;;;;5081271;28;20945;-45
2022/09/01 12:46:08;;;;;;;4.60;3.20;;;23.50;51.70;;;;;;5080059;28;20464;-45
2022/09/01 12:48:38;;;;;;;3.23;3.03;;;23.50;51.60;;;;;;5087090;28;20454;-45
2022/09/01 12:51:21;;;;;;;3.77;3.47;;;23.50;52.00;;;;;;5085500;28;20979;-45
2022/09/01 12:53:58;;;;;;;3.40;3.20;;;23.60;51.60;;;;;;5065167;28;21003;-45
2022/09/01 12:56:38;;;;;;;5.20;3.90;;;23.50;51.20;;;;;;5080242;28;20503;-45
2022/09/01 12:59:19;;;;;;;2.83;2.63;;;23.70;51.60;;;;;;5079432;28;20495;-45
2022/09/01 13:02:48;;;;;;;4.17;3.23;;;23.70;51.40;;;;;;5063922;28;20452;-45
2022/09/01 13:05:36;;;;;;;3.23;2.83;;;23.80;50.80;;;;;;5039835;28;20451;-45
2022/09/01 13:08:18;;;;;;;3.43;3.00;;;23.90;51.20;;;;;;5062179;28;20475;-45
2022/09/01 13:10:49;;;;;;;3.53;3.07;;;23.90;51.40;;;;;;5079697;28;20497;-45
2022/09/01 13:13:17;;;;;;;3.40;3.10;;;23.90;50.80;;;;;;5077568;28;20469;-45
2022/09/01 13:15:49;;;;;;;3.43;3.20;;;23.80;50.60;;;;;;5077432;28;20950;-45
2022/09/01 13:18:16;;;;;;;3.37;3.07;;;23.80;50.70;;;;;;5072284;28;20488;-45
2022/09/01 13:20:44;;;;;;;3.47;2.93;;;23.80;50.70;;;;;;5080603;28;20456;-45
2022/09/01 13:23:11;;;;;;;3.27;2.97;;;23.80;50.80;;;;;;5060965;28;20835;-45
2022/09/01 13:25:39;;;;;;;3.07;2.87;;;23.80;51.30;;;;;;5075418;28;20459;-45
2022/09/01 13:28:07;;;;;;;3.27;2.70;;;23.90;50.80;;;;;;5077300;28;20464;-45